Time;durP1;ratioP1;P1;durP2;ratioP2;P2;SDS_P1;SDS_P2;PMS_P1;PMS_P2;Temp;Humidity;BMP_temperature;BMP_pressure;BME280_temperature;BME280_humidity;BME280_pressure;Samples;Min_cycle;Max_cycle;Signal;HPM_P1;HPM_P2
2022/10/24 00:01:43;;;;;;;6.57;5.87;;;14.30;99.90;;;;;;4943235;29;20234;-85
2022/10/24 00:04:08;;;;;;;7.17;5.43;;;14.30;99.90;;;;;;4924476;29;20293;-84
2022/10/24 00:06:34;;;;;;;6.43;5.37;;;14.30;99.90;;;;;;4947952;29;20772;-86
2022/10/24 00:08:59;;;;;;;5.93;5.40;;;14.30;99.90;;;;;;4951018;29;20202;-86
2022/10/24 00:11:26;;;;;;;7.20;6.20;;;14.20;99.90;;;;;;4940127;29;20201;-85
2022/10/24 00:13:53;;;;;;;6.17;5.57;;;14.20;99.90;;;;;;4940971;29;20206;-83
2022/10/24 00:16:19;;;;;;;6.60;5.67;;;14.20;99.90;;;;;;4940491;29;20202;-90
2022/10/24 00:18:46;;;;;;;7.27;5.67;;;14.20;99.90;;;;;;4942273;29;20205;-83
2022/10/24 00:21:12;;;;;;;6.50;5.83;;;14.10;99.90;;;;;;4943294;29;20213;-85
2022/10/24 00:23:37;;;;;;;6.37;5.77;;;14.10;99.90;;;;;;4943909;29;20206;-91
2022/10/24 00:26:04;;;;;;;6.50;5.70;;;14.10;99.90;;;;;;4951706;29;20253;-90
2022/10/24 00:28:32;;;;;;;6.53;5.73;;;14.10;99.90;;;;;;4945895;29;20254;-91
2022/10/24 00:30:58;;;;;;;6.50;5.73;;;14.10;99.90;;;;;;4943019;29;20226;-88
2022/10/24 00:33:24;;;;;;;8.77;5.63;;;14.00;99.90;;;;;;4947937;29;20194;-83
2022/10/24 00:35:50;;;;;;;5.87;5.30;;;14.00;99.90;;;;;;4938908;28;20209;-81
2022/10/24 00:38:15;;;;;;;9.53;5.97;;;14.00;99.90;;;;;;4949619;29;20202;-85
2022/10/24 00:40:41;;;;;;;12.90;6.40;;;14.00;99.90;;;;;;4935796;29;20210;-81
2022/10/24 00:43:17;;;;;;;7.67;6.27;;;14.00;99.90;;;;;;4942037;29;20210;-86
2022/10/24 00:45:56;;;;;;;8.30;5.90;;;14.00;99.90;;;;;;4938952;29;20688;-83
2022/10/24 00:48:52;;;;;;;9.93;5.63;;;14.00;99.90;;;;;;4939863;29;20210;-81
2022/10/24 00:51:18;;;;;;;8.53;6.33;;;13.90;99.90;;;;;;4938352;29;20226;-84
2022/10/24 00:53:46;;;;;;;7.73;6.30;;;13.90;99.90;;;;;;4949084;28;20261;-86
2022/10/24 00:56:15;;;;;;;7.37;6.60;;;13.90;99.90;;;;;;4939826;29;20234;-83
2022/10/24 00:58:43;;;;;;;7.17;5.67;;;13.90;99.90;;;;;;4950689;29;20205;-85
2022/10/24 01:01:09;;;;;;;8.37;6.50;;;13.80;99.90;;;;;;4946890;29;20504;-84
2022/10/24 01:03:35;;;;;;;6.47;5.80;;;13.80;99.90;;;;;;4939441;29;20748;-83
2022/10/24 01:06:25;;;;;;;8.83;6.47;;;13.80;99.90;;;;;;4936320;29;20276;-86
2022/10/24 01:09:15;;;;;;;7.43;5.70;;;13.80;99.90;;;;;;4933918;29;20261;-85
2022/10/24 01:12:15;;;;;;;8.83;5.87;;;13.80;99.90;;;;;;4941797;29;20244;-84
2022/10/24 01:14:51;;;;;;;6.77;5.77;;;13.70;99.90;;;;;;4947913;29;20286;-84
2022/10/24 01:17:25;;;;;;;7.33;5.83;;;13.70;99.90;;;;;;4937403;29;20261;-80
2022/10/24 01:20:30;;;;;;;6.93;6.23;;;13.70;99.90;;;;;;4938719;29;20193;-84
2022/10/24 01:23:28;;;;;;;6.10;5.33;;;13.80;99.90;;;;;;4948796;29;20337;-88
2022/10/24 01:26:27;;;;;;;8.17;6.07;;;13.80;99.90;;;;;;4946978;29;20210;-87
2022/10/24 01:29:15;;;;;;;8.47;6.53;;;13.90;99.90;;;;;;4948719;29;20753;-88
2022/10/24 01:31:58;;;;;;;7.33;6.00;;;13.90;99.90;;;;;;4940247;29;20217;-88
2022/10/24 01:34:31;;;;;;;7.07;6.33;;;14.00;99.90;;;;;;4948504;29;20198;-84
2022/10/24 01:37:07;;;;;;;8.97;6.43;;;13.90;99.90;;;;;;4946059;29;20217;-86
2022/10/24 01:39:47;;;;;;;8.83;6.87;;;14.00;99.90;;;;;;4941192;29;20650;-86
2022/10/24 01:42:15;;;;;;;9.03;6.40;;;14.00;99.90;;;;;;4936776;29;20205;-83
2022/10/24 01:44:48;;;;;;;9.70;5.97;;;14.00;99.90;;;;;;4940335;29;20202;-87
2022/10/24 01:47:20;;;;;;;6.63;5.93;;;14.00;99.90;;;;;;4932440;29;20431;-85
2022/10/24 01:49:53;;;;;;;6.70;6.07;;;14.00;99.90;;;;;;4940313;29;20218;-86
2022/10/24 01:52:19;;;;;;;7.17;6.00;;;14.00;99.90;;;;;;4944571;29;20349;-87
2022/10/24 01:54:47;;;;;;;7.50;6.07;;;14.00;99.90;;;;;;4941639;28;20313;-85
2022/10/24 01:57:13;;;;;;;8.03;5.73;;;13.90;99.90;;;;;;4949230;29;20304;-85
2022/10/24 01:59:44;;;;;;;6.60;5.23;;;13.90;99.90;;;;;;4940564;29;20266;-84
2022/10/24 02:02:18;;;;;;;6.30;5.00;;;13.80;99.90;;;;;;4936859;29;20209;-79
2022/10/24 02:05:00;;;;;;;5.83;5.30;;;13.80;99.90;;;;;;4945976;29;20196;-78
2022/10/24 02:07:29;;;;;;;5.93;5.33;;;13.80;99.90;;;;;;4943326;29;20291;-82
2022/10/24 02:10:10;;;;;;;5.90;5.30;;;13.70;99.90;;;;;;4938853;29;20210;-77
2022/10/24 02:12:39;;;;;;;6.10;5.30;;;13.70;99.90;;;;;;4936403;29;20545;-78
2022/10/24 02:15:16;;;;;;;10.53;5.93;;;13.70;99.90;;;;;;4936599;29;20201;-77
2022/10/24 02:17:42;;;;;;;7.77;5.87;;;13.70;99.90;;;;;;4942740;29;20301;-72
2022/10/24 02:20:08;;;;;;;5.90;5.27;;;13.70;99.90;;;;;;4936509;29;20723;-80
2022/10/24 02:22:57;;;;;;;9.80;6.17;;;13.70;99.90;;;;;;4943479;29;20202;-80
2022/10/24 02:25:29;;;;;;;6.43;5.70;;;13.60;99.90;;;;;;4936443;29;20206;-81
2022/10/24 02:27:59;;;;;;;7.53;5.87;;;13.50;99.90;;;;;;4940872;29;20269;-77
2022/10/24 02:30:25;;;;;;;7.13;5.87;;;13.60;99.90;;;;;;4938777;29;20704;-77
2022/10/24 02:32:57;;;;;;;5.43;4.93;;;13.50;99.90;;;;;;4934219;29;20206;-78
2022/10/24 02:35:29;;;;;;;6.30;4.70;;;13.50;99.90;;;;;;4935644;29;20198;-77
2022/10/24 02:38:06;;;;;;;7.07;5.40;;;13.50;99.90;;;;;;4941161;29;20225;-77
2022/10/24 02:40:33;;;;;;;8.20;5.70;;;13.50;99.90;;;;;;4942706;29;20225;-77
2022/10/24 02:43:00;;;;;;;6.43;5.03;;;13.50;99.90;;;;;;4941968;29;20258;-77
2022/10/24 02:45:27;;;;;;;8.47;5.50;;;13.50;99.90;;;;;;4936623;29;20590;-77
2022/10/24 02:47:58;;;;;;;5.70;4.70;;;13.50;99.90;;;;;;4936181;29;20256;-78
2022/10/24 02:50:24;;;;;;;7.17;5.57;;;13.50;99.90;;;;;;4938755;29;20214;-78
2022/10/24 02:52:49;;;;;;;6.63;5.70;;;13.50;99.90;;;;;;4936171;28;20334;-75
2022/10/24 02:55:15;;;;;;;5.70;4.93;;;13.50;99.90;;;;;;4938653;29;20277;-77
2022/10/24 02:57:40;;;;;;;5.60;4.97;;;13.40;99.90;;;;;;4937176;29;20210;-78
2022/10/24 03:00:07;;;;;;;6.27;5.40;;;13.50;99.90;;;;;;4941316;29;20194;-78
2022/10/24 03:02:33;;;;;;;9.33;5.43;;;13.40;99.90;;;;;;4938958;29;20205;-77
2022/10/24 03:04:58;;;;;;;5.10;4.60;;;13.40;99.90;;;;;;4936550;29;20191;-77
2022/10/24 03:07:24;;;;;;;5.70;5.20;;;13.40;99.90;;;;;;4939346;29;20210;-74
2022/10/24 03:09:49;;;;;;;6.67;4.60;;;13.40;99.90;;;;;;4935248;29;20693;-77
2022/10/24 03:12:16;;;;;;;5.30;4.87;;;13.40;99.90;;;;;;4936528;29;20207;-77
2022/10/24 03:14:41;;;;;;;5.43;4.93;;;13.40;99.90;;;;;;4939652;29;20691;-77
2022/10/24 03:17:07;;;;;;;6.87;5.20;;;13.40;99.90;;;;;;4935051;29;20209;-77
2022/10/24 03:19:32;;;;;;;5.53;4.93;;;13.30;99.90;;;;;;4935486;29;20696;-74
2022/10/24 03:21:58;;;;;;;5.30;4.80;;;13.30;99.90;;;;;;4942393;29;20284;-78
2022/10/24 03:24:23;;;;;;;5.90;5.00;;;13.30;99.90;;;;;;4942684;29;20204;-77
2022/10/24 03:26:51;;;;;;;6.70;4.47;;;13.30;99.90;;;;;;4936385;29;20205;-76
2022/10/24 03:29:17;;;;;;;5.67;4.67;;;13.30;99.90;;;;;;4938724;29;20782;-76
2022/10/24 03:31:42;;;;;;;7.40;6.63;;;13.20;99.90;;;;;;4939228;29;20252;-76
2022/10/24 03:34:08;;;;;;;5.30;4.77;;;13.20;99.90;;;;;;4936671;29;20195;-76
2022/10/24 03:36:33;;;;;;;5.10;4.50;;;13.30;99.90;;;;;;4938246;29;20202;-76
2022/10/24 03:38:59;;;;;;;5.93;4.67;;;13.20;99.90;;;;;;4934986;29;20736;-74
2022/10/24 03:41:24;;;;;;;5.53;4.53;;;13.20;99.90;;;;;;4936148;29;20194;-76
2022/10/24 03:43:50;;;;;;;5.00;4.33;;;13.20;99.90;;;;;;4944183;29;20570;-76
2022/10/24 03:46:15;;;;;;;5.30;4.87;;;13.20;99.90;;;;;;4933631;29;20570;-76
2022/10/24 03:48:41;;;;;;;8.37;5.00;;;13.20;99.90;;;;;;4937285;29;20207;-75
2022/10/24 03:51:06;;;;;;;7.53;4.60;;;13.20;99.90;;;;;;4937314;29;20222;-76
2022/10/24 03:53:32;;;;;;;5.30;4.03;;;13.10;99.90;;;;;;4935317;28;20589;-76
2022/10/24 03:55:59;;;;;;;4.90;4.20;;;13.10;99.90;;;;;;4934767;29;20285;-77
2022/10/24 03:58:24;;;;;;;6.60;4.50;;;13.10;99.90;;;;;;4935905;29;20318;-76
2022/10/24 04:00:50;;;;;;;4.27;3.87;;;13.10;99.90;;;;;;4942602;29;20312;-76
2022/10/24 04:03:15;;;;;;;5.43;4.93;;;13.10;99.90;;;;;;4937664;29;20220;-77
2022/10/24 04:05:41;;;;;;;8.20;4.87;;;13.10;99.90;;;;;;4945182;29;20210;-82
2022/10/24 04:08:06;;;;;;;4.67;4.27;;;13.10;99.90;;;;;;4941432;29;20797;-83
2022/10/24 04:10:32;;;;;;;5.20;4.70;;;13.00;99.90;;;;;;4936535;28;20268;-82
2022/10/24 04:12:57;;;;;;;7.87;5.43;;;13.00;99.90;;;;;;4946577;29;20210;-76
2022/10/24 04:15:23;;;;;;;6.17;5.03;;;13.00;99.90;;;;;;4940146;29;20191;-82
2022/10/24 04:17:48;;;;;;;5.27;4.77;;;13.00;99.90;;;;;;4945350;29;20206;-84
2022/10/24 04:20:18;;;;;;;4.83;4.30;;;13.00;99.90;;;;;;4940857;29;20252;-83
2022/10/24 04:22:44;;;;;;;4.70;4.30;;;13.00;99.90;;;;;;4938546;29;20201;-83
2022/10/24 04:25:09;;;;;;;5.60;4.23;;;13.00;99.90;;;;;;4940834;29;20209;-83
2022/10/24 04:27:39;;;;;;;6.07;3.80;;;13.00;99.90;;;;;;4939397;29;20212;-82
2022/10/24 04:30:06;;;;;;;4.70;4.10;;;13.00;99.90;;;;;;4939206;29;20292;-82
2022/10/24 04:32:31;;;;;;;6.70;4.17;;;13.00;99.90;;;;;;4943217;29;20225;-83
2022/10/24 04:34:57;;;;;;;4.90;4.20;;;12.90;99.90;;;;;;4949970;29;20192;-83
2022/10/24 04:37:22;;;;;;;4.70;4.30;;;13.00;99.90;;;;;;4940495;29;20200;-83
2022/10/24 04:39:48;;;;;;;4.87;4.30;;;13.00;99.90;;;;;;4941323;29;20208;-81
2022/10/24 04:42:13;;;;;;;4.63;4.23;;;12.90;99.90;;;;;;4948456;29;20255;-82
2022/10/24 04:44:39;;;;;;;5.70;4.33;;;12.90;99.90;;;;;;4941305;29;20189;-82
2022/10/24 04:47:04;;;;;;;6.83;4.30;;;12.90;99.90;;;;;;4943400;29;20226;-83
2022/10/24 04:49:29;;;;;;;4.33;3.93;;;12.90;99.90;;;;;;4938973;29;20249;-76
2022/10/24 04:51:55;;;;;;;4.60;3.93;;;12.90;99.90;;;;;;4943891;29;20208;-80
2022/10/24 04:54:20;;;;;;;5.20;4.30;;;12.90;99.90;;;;;;4941513;28;20213;-75
2022/10/24 04:56:46;;;;;;;9.43;4.77;;;12.90;99.90;;;;;;4941157;29;20200;-75
2022/10/24 04:59:11;;;;;;;5.33;4.47;;;12.90;99.90;;;;;;4947019;29;20248;-76
2022/10/24 05:01:37;;;;;;;6.63;4.33;;;12.90;99.90;;;;;;4933166;29;20197;-65
2022/10/24 05:04:03;;;;;;;10.87;4.77;;;12.90;99.90;;;;;;4944648;29;20200;-66
2022/10/24 05:06:28;;;;;;;5.40;4.73;;;13.00;99.90;;;;;;4945037;29;20189;-64
2022/10/24 05:08:54;;;;;;;6.77;4.50;;;13.00;99.90;;;;;;4947102;29;20201;-66
2022/10/24 05:11:19;;;;;;;7.20;4.47;;;13.10;99.90;;;;;;4943870;29;20231;-64
2022/10/24 05:13:44;;;;;;;4.77;4.30;;;13.10;99.90;;;;;;4939331;29;20242;-65
2022/10/24 05:16:10;;;;;;;5.13;4.63;;;13.10;99.90;;;;;;4946249;29;20611;-65
2022/10/24 05:18:35;;;;;;;4.87;3.83;;;13.20;99.90;;;;;;4942571;29;20220;-67
2022/10/24 05:21:01;;;;;;;6.33;4.10;;;13.20;99.90;;;;;;4939099;29;20202;-67
2022/10/24 05:23:27;;;;;;;10.50;3.87;;;13.20;99.90;;;;;;4936903;28;20800;-66
2022/10/24 05:25:53;;;;;;;6.47;4.27;;;13.20;99.90;;;;;;4939823;29;20205;-68
2022/10/24 05:28:18;;;;;;;8.40;3.87;;;13.20;99.90;;;;;;4937768;29;20225;-67
2022/10/24 05:30:44;;;;;;;6.90;4.27;;;13.20;99.90;;;;;;4943158;29;20235;-66
2022/10/24 05:33:10;;;;;;;4.73;4.30;;;13.20;99.90;;;;;;4941694;29;20475;-66
2022/10/24 05:35:35;;;;;;;5.60;4.57;;;13.20;99.90;;;;;;4937259;29;20650;-67
2022/10/24 05:38:02;;;;;;;4.53;4.20;;;13.20;99.90;;;;;;4941256;29;20237;-66
2022/10/24 05:40:27;;;;;;;7.77;4.17;;;13.20;99.90;;;;;;4936162;29;20204;-67
2022/10/24 05:42:53;;;;;;;8.53;4.23;;;13.20;99.90;;;;;;4940590;29;20218;-67
2022/10/24 05:45:18;;;;;;;6.00;4.30;;;13.20;99.90;;;;;;4935648;29;20292;-67
2022/10/24 05:47:44;;;;;;;6.20;3.80;;;13.20;99.90;;;;;;4927189;29;20234;-66
2022/10/24 05:50:10;;;;;;;6.13;4.37;;;13.20;99.90;;;;;;4945098;29;20257;-66
2022/10/24 05:52:35;;;;;;;3.93;3.63;;;13.20;99.90;;;;;;4938893;28;20210;-68
2022/10/24 05:55:03;;;;;;;5.40;4.90;;;13.20;99.90;;;;;;4940119;29;20871;-66
2022/10/24 05:57:29;;;;;;;6.03;4.30;;;13.20;99.90;;;;;;4936120;29;20190;-67
2022/10/24 05:59:54;;;;;;;4.87;4.03;;;13.20;99.90;;;;;;4936339;29;20211;-67
2022/10/24 06:02:20;;;;;;;6.97;4.43;;;13.20;99.90;;;;;;4942894;29;20202;-66
2022/10/24 06:04:47;;;;;;;4.63;4.20;;;13.20;99.90;;;;;;4935092;29;20230;-66
2022/10/24 06:07:12;;;;;;;5.90;4.17;;;13.20;99.90;;;;;;4942805;29;20288;-66
2022/10/24 06:09:40;;;;;;;9.83;4.50;;;13.20;99.90;;;;;;4936246;29;20304;-67
2022/10/24 06:12:07;;;;;;;6.60;4.40;;;13.20;99.90;;;;;;4937583;29;20234;-66
2022/10/24 06:14:33;;;;;;;5.00;4.47;;;13.20;99.90;;;;;;4945077;29;20190;-67
2022/10/24 06:16:58;;;;;;;7.43;4.80;;;13.20;99.90;;;;;;4936511;29;20201;-66
2022/10/24 06:19:24;;;;;;;5.90;4.77;;;13.10;99.90;;;;;;4945119;29;20995;-64
2022/10/24 06:21:49;;;;;;;6.17;4.93;;;13.10;99.90;;;;;;4932012;29;20201;-66
2022/10/24 06:24:14;;;;;;;8.20;5.07;;;13.10;99.90;;;;;;4935376;29;20216;-66
2022/10/24 06:26:40;;;;;;;6.80;4.93;;;13.20;99.90;;;;;;4936996;29;20703;-66
2022/10/24 06:29:05;;;;;;;7.63;5.50;;;13.10;99.90;;;;;;4942526;29;20225;-66
2022/10/24 06:31:34;;;;;;;6.43;4.70;;;13.20;99.90;;;;;;4935844;29;20307;-66
2022/10/24 06:34:00;;;;;;;8.17;5.40;;;13.20;99.90;;;;;;4933367;28;20206;-66
2022/10/24 06:36:26;;;;;;;8.23;4.87;;;13.30;99.90;;;;;;4935090;29;20240;-66
2022/10/24 06:38:53;;;;;;;7.83;5.40;;;13.40;99.90;;;;;;4938590;29;20214;-67
2022/10/24 06:41:19;;;;;;;8.83;5.17;;;13.40;99.90;;;;;;4925925;29;20216;-64
2022/10/24 06:43:45;;;;;;;8.00;4.63;;;13.40;99.90;;;;;;4936128;29;20614;-66
2022/10/24 06:46:14;;;;;;;7.73;5.20;;;13.50;99.90;;;;;;4944014;29;20551;-66
2022/10/24 06:48:40;;;;;;;6.00;4.43;;;13.50;99.90;;;;;;4942489;29;20305;-66
2022/10/24 06:51:05;;;;;;;7.13;4.53;;;13.60;99.90;;;;;;4944249;29;20301;-67
2022/10/24 06:53:31;;;;;;;7.47;4.07;;;13.60;99.90;;;;;;4938055;28;20203;-67
2022/10/24 06:56:02;;;;;;;5.23;4.50;;;13.70;99.90;;;;;;4934429;29;20256;-67
2022/10/24 06:58:35;;;;;;;7.63;4.57;;;13.70;99.90;;;;;;4935194;29;20202;-67
2022/10/24 07:01:14;;;;;;;9.40;4.30;;;13.70;99.90;;;;;;4941326;29;20211;-67
2022/10/24 07:03:40;;;;;;;5.23;4.43;;;13.80;99.90;;;;;;4942767;29;20233;-68
2022/10/24 07:06:36;;;;;;;7.93;4.90;;;13.80;99.90;;;;;;4944423;29;20221;-67
2022/10/24 07:09:04;;;;;;;7.80;4.30;;;13.90;99.90;;;;;;4937011;29;20245;-68
2022/10/24 07:11:30;;;;;;;5.97;4.10;;;13.90;99.90;;;;;;4935164;29;20779;-67
2022/10/24 07:13:55;;;;;;;8.97;4.33;;;13.90;99.90;;;;;;4942137;29;20240;-67
2022/10/24 07:16:21;;;;;;;6.30;4.43;;;14.00;99.90;;;;;;4943708;29;20231;-67
2022/10/24 07:18:47;;;;;;;6.33;4.30;;;14.00;99.90;;;;;;4937638;29;20688;-65
2022/10/24 07:21:21;;;;;;;7.27;4.63;;;14.10;99.90;;;;;;4934648;29;20198;-67
2022/10/24 07:23:48;;;;;;;12.00;4.80;;;14.10;99.90;;;;;;4935172;29;20198;-67
2022/10/24 07:26:15;;;;;;;5.83;4.97;;;14.20;99.90;;;;;;4940325;29;20264;-67
2022/10/24 07:28:44;;;;;;;10.47;5.07;;;14.30;99.90;;;;;;4942618;29;20216;-67
2022/10/24 07:31:12;;;;;;;10.87;4.30;;;14.30;99.90;;;;;;4944610;29;20238;-67
2022/10/24 07:33:38;;;;;;;9.10;4.50;;;14.40;99.90;;;;;;4942604;29;20322;-67
2022/10/24 07:36:03;;;;;;;4.77;4.13;;;14.40;99.90;;;;;;4944600;29;20557;-67
2022/10/24 07:38:29;;;;;;;7.07;3.90;;;14.50;99.90;;;;;;4942228;29;20205;-67
2022/10/24 07:40:54;;;;;;;5.87;4.13;;;14.60;99.90;;;;;;4935480;29;20202;-68
2022/10/24 07:43:20;;;;;;;5.70;3.50;;;14.60;99.90;;;;;;4938498;29;20597;-66
2022/10/24 07:45:45;;;;;;;7.77;4.47;;;14.70;99.90;;;;;;4936414;29;20198;-68
2022/10/24 07:48:11;;;;;;;9.17;4.37;;;14.80;99.90;;;;;;4929106;29;20222;-66
2022/10/24 07:50:44;;;;;;;5.87;3.97;;;14.80;99.90;;;;;;4944612;29;20234;-65
2022/10/24 07:53:10;;;;;;;5.17;4.20;;;14.90;99.90;;;;;;4934370;29;20210;-68
2022/10/24 07:55:41;;;;;;;6.10;4.00;;;14.90;99.90;;;;;;4947708;29;20194;-67
2022/10/24 07:58:08;;;;;;;8.70;3.67;;;15.00;99.90;;;;;;4944176;29;20759;-68
2022/10/24 08:00:34;;;;;;;11.83;4.03;;;15.10;99.90;;;;;;4938176;29;20234;-65
2022/10/24 08:02:59;;;;;;;8.67;3.30;;;15.10;99.90;;;;;;4944806;29;20875;-68
2022/10/24 08:05:25;;;;;;;7.70;3.80;;;15.20;99.90;;;;;;4945498;29;20225;-65
2022/10/24 08:07:50;;;;;;;11.17;3.83;;;15.30;99.90;;;;;;4934258;29;20198;-67
2022/10/24 08:10:16;;;;;;;9.00;3.77;;;15.40;99.90;;;;;;4947043;29;20274;-69
2022/10/24 08:12:41;;;;;;;6.97;3.50;;;15.50;99.90;;;;;;4936393;29;20206;-72
2022/10/24 08:15:07;;;;;;;11.13;4.13;;;15.50;99.90;;;;;;4947222;29;20198;-68
2022/10/24 08:17:35;;;;;;;5.37;3.87;;;15.60;99.90;;;;;;4930505;29;20205;-70
2022/10/24 08:20:00;;;;;;;4.43;3.53;;;15.70;99.90;;;;;;4928320;29;20206;-71
2022/10/24 08:22:26;;;;;;;7.97;3.20;;;15.70;99.90;;;;;;4927039;29;20202;-71
2022/10/24 08:24:51;;;;;;;5.03;3.60;;;15.80;99.90;;;;;;4929957;29;20205;-70
2022/10/24 08:27:17;;;;;;;6.90;3.50;;;15.90;99.90;;;;;;4927565;29;20217;-70
2022/10/24 08:29:42;;;;;;;5.27;3.80;;;16.00;99.90;;;;;;4929255;29;20701;-69
2022/10/24 08:32:08;;;;;;;14.57;3.50;;;16.00;99.90;;;;;;4926362;29;20199;-70
2022/10/24 08:34:33;;;;;;;6.57;3.40;;;16.10;99.90;;;;;;4928120;29;20207;-69
2022/10/24 08:36:59;;;;;;;7.63;3.50;;;16.20;99.90;;;;;;4927358;29;20202;-71
2022/10/24 08:39:25;;;;;;;6.60;3.87;;;16.30;99.90;;;;;;4932569;29;20194;-69
2022/10/24 08:41:55;;;;;;;5.77;3.27;;;16.40;99.90;;;;;;4931029;29;20241;-70
2022/10/24 08:44:42;;;;;;;6.57;3.07;;;16.50;99.90;;;;;;4926742;29;20801;-70
2022/10/24 08:47:43;;;;;;;7.13;3.33;;;16.60;99.90;;;;;;4929433;29;20244;-71
2022/10/24 08:50:30;;;;;;;9.77;3.83;;;16.70;99.90;;;;;;4927397;29;20310;-69
2022/10/24 08:53:18;;;;;;;6.30;3.07;;;16.80;99.90;;;;;;4929061;29;20210;-71
2022/10/24 08:55:52;;;;;;;31.33;7.27;;;16.80;99.90;;;;;;4936575;29;20709;-67
2022/10/24 08:58:28;;;;;;;5.77;2.83;;;16.90;99.90;;;;;;4935044;29;20213;-69
2022/10/24 09:00:57;;;;;;;8.77;3.03;;;17.00;99.90;;;;;;4937126;29;20602;-69
2022/10/24 09:03:30;;;;;;;9.03;3.97;;;17.00;99.90;;;;;;4939649;29;20206;-70
2022/10/24 09:06:00;;;;;;;6.23;3.17;;;17.00;99.90;;;;;;4920634;29;20285;-71
2022/10/24 09:08:48;;;;;;;6.93;3.67;;;17.10;99.90;;;;;;4927419;29;21090;-70
2022/10/24 09:11:30;;;;;;;9.30;3.73;;;17.10;99.90;;;;;;4914237;29;20225;-73
2022/10/24 09:13:59;;;;;;;7.63;3.17;;;17.10;99.90;;;;;;4927915;29;21132;-72
2022/10/24 09:16:26;;;;;;;4.67;3.00;;;17.20;99.90;;;;;;4930000;29;20194;-72
2022/10/24 09:18:53;;;;;;;5.33;3.50;;;17.20;99.90;;;;;;4924924;29;20265;-71
2022/10/24 09:21:20;;;;;;;7.63;3.03;;;17.20;99.90;;;;;;4939736;29;20198;-70
2022/10/24 09:23:46;;;;;;;4.33;3.63;;;17.30;99.90;;;;;;4941731;29;20220;-70
2022/10/24 09:26:28;;;;;;;8.43;3.57;;;17.30;99.90;;;;;;4945734;29;20190;-69
2022/10/24 09:28:55;;;;;;;6.33;3.10;;;17.30;99.90;;;;;;4937129;29;20734;-70
2022/10/24 09:31:23;;;;;;;4.93;3.27;;;17.40;99.90;;;;;;4939222;29;20298;-81
2022/10/24 09:33:50;;;;;;;8.07;4.17;;;17.40;99.90;;;;;;4934155;29;20285;-70
2022/10/24 09:36:18;;;;;;;11.80;3.50;;;17.40;99.90;;;;;;4929349;29;20270;-67
2022/10/24 09:38:45;;;;;;;6.17;2.60;;;17.50;99.90;;;;;;4928009;29;20207;-70
2022/10/24 09:41:15;;;;;;;4.50;3.20;;;17.50;99.90;;;;;;4929074;29;20191;-69
2022/10/24 09:43:46;;;;;;;7.07;2.97;;;17.50;99.90;;;;;;4925813;29;20207;-67
2022/10/24 09:46:25;;;;;;;8.13;3.30;;;17.60;99.90;;;;;;4925419;29;20223;-69
2022/10/24 09:49:02;;;;;;;4.27;2.40;;;17.70;99.90;;;;;;4925923;29;20203;-68
2022/10/24 09:51:44;;;;;;;15.57;3.33;;;17.80;99.90;;;;;;4929556;29;20223;-68
2022/10/24 09:54:19;;;;;;;7.90;3.60;;;17.80;99.90;;;;;;4925977;28;20211;-69
2022/10/24 09:57:11;;;;;;;9.77;3.60;;;17.80;99.90;;;;;;4929671;29;20239;-68
2022/10/24 09:59:47;;;;;;;8.33;3.60;;;17.90;99.90;;;;;;4925748;29;20210;-68
2022/10/24 10:02:18;;;;;;;8.90;3.40;;;17.90;99.90;;;;;;4927245;29;20238;-67
2022/10/24 10:04:47;;;;;;;2.73;2.47;;;17.90;99.90;;;;;;4929282;29;20191;-68
2022/10/24 10:07:26;;;;;;;9.90;3.33;;;18.00;99.90;;;;;;4927660;29;20195;-67
2022/10/24 10:09:54;;;;;;;7.80;3.03;;;18.00;99.90;;;;;;4927945;29;20254;-68
2022/10/24 10:12:41;;;;;;;6.43;2.80;;;18.10;99.90;;;;;;4926332;29;20401;-68
2022/10/24 10:15:25;;;;;;;5.93;3.13;;;18.10;99.90;;;;;;4930406;29;20195;-71
2022/10/24 10:17:53;;;;;;;4.97;2.57;;;18.20;99.90;;;;;;4926170;29;20297;-70
2022/10/24 10:20:40;;;;;;;9.37;3.23;;;18.20;99.90;;;;;;4931711;29;20207;-68
2022/10/24 10:23:24;;;;;;;6.50;3.10;;;18.30;99.90;;;;;;4927557;29;20218;-69
2022/10/24 10:26:19;;;;;;;8.73;3.00;;;18.40;99.90;;;;;;4925561;29;20203;-80
2022/10/24 10:28:54;;;;;;;4.27;2.47;;;18.50;99.90;;;;;;4929668;29;20215;-69
2022/10/24 10:31:42;;;;;;;3.40;2.30;;;18.50;99.90;;;;;;4930007;29;20206;-69
2022/10/24 10:34:22;;;;;;;6.40;3.03;;;18.50;99.90;;;;;;4932562;29;20701;-69
2022/10/24 10:37:03;;;;;;;7.33;3.33;;;18.50;99.90;;;;;;4934897;29;20198;-69
2022/10/24 10:39:47;;;;;;;3.83;2.43;;;18.50;99.90;;;;;;4933031;29;20210;-69
2022/10/24 10:42:16;;;;;;;6.87;3.07;;;18.60;99.90;;;;;;4936613;29;20561;-69
2022/10/24 10:45:39;;;;;;;5.00;3.00;;;18.60;99.90;;;;;;4941980;29;20329;-69
2022/10/24 10:48:46;;;;;;;3.37;2.17;;;18.60;99.90;;;;;;4843390;29;20222;-68
2022/10/24 10:51:38;;;;;;;7.60;3.00;;;18.60;99.90;;;;;;4910069;29;20333;-68
2022/10/24 10:54:28;;;;;;;5.23;3.40;;;18.60;99.90;;;;;;4908238;29;20869;-71
2022/10/24 10:56:59;;;;;;;5.27;2.73;;;18.60;99.90;;;;;;4908546;29;20277;-69
2022/10/24 10:59:53;;;;;;;3.47;2.60;;;18.60;99.90;;;;;;4907717;29;20219;-67
2022/10/24 11:02:43;;;;;;;8.67;2.97;;;18.70;99.90;;;;;;4909140;29;20184;-69
2022/10/24 11:05:25;;;;;;;5.70;2.40;;;18.70;99.90;;;;;;4907590;29;20187;-69
2022/10/24 11:08:11;;;;;;;4.70;3.30;;;18.70;99.90;;;;;;4917188;29;20195;-68
2022/10/24 11:10:48;;;;;;;7.77;2.80;;;18.70;99.90;;;;;;4917965;29;20224;-84
2022/10/24 11:13:20;;;;;;;12.03;2.80;;;18.70;99.90;;;;;;4924633;29;20195;-84
2022/10/24 11:15:49;;;;;;;4.70;2.67;;;18.70;99.90;;;;;;4926275;29;20222;-69
2022/10/24 11:18:26;;;;;;;9.18;3.25;;;18.70;99.90;;;;;;4910729;29;20858;-70
2022/10/24 11:21:10;;;;;;;8.73;3.37;;;18.80;99.90;;;;;;4909285;29;20270;-85
2022/10/24 11:23:48;;;;;;;6.67;2.90;;;18.80;99.90;;;;;;4924074;29;20203;-77
2022/10/24 11:26:30;;;;;;;8.50;2.60;;;18.80;99.90;;;;;;4915623;29;20193;-66
2022/10/24 11:29:00;;;;;;;6.90;2.37;;;19.00;99.90;;;;;;4922967;29;20208;-66
2022/10/24 11:31:42;;;;;;;6.80;3.10;;;19.00;99.90;;;;;;4920308;29;20610;-65
2022/10/24 11:34:39;;;;;;;6.50;2.63;;;19.10;99.90;;;;;;4927517;29;20942;-78
2022/10/24 11:37:32;;;;;;;4.33;2.43;;;19.10;99.90;;;;;;4930237;29;20270;-78
2022/10/24 11:40:08;;;;;;;7.00;3.30;;;19.20;99.90;;;;;;4922194;29;20213;-67
2022/10/24 11:42:45;;;;;;;4.83;2.23;;;19.30;99.90;;;;;;4915618;29;20276;-70
2022/10/24 11:45:13;;;;;;;5.50;2.90;;;19.30;99.90;;;;;;4912636;29;20254;-74
2022/10/24 11:47:49;;;;;;;4.90;2.63;;;19.30;99.90;;;;;;4924280;29;20244;-74
2022/10/24 11:50:23;;;;;;;5.03;2.63;;;19.30;99.90;;;;;;4931430;29;20992;-75
2022/10/24 11:52:51;;;;;;;5.33;2.47;;;19.30;99.90;;;;;;4934508;28;20729;-75
2022/10/24 11:55:24;;;;;;;8.20;2.23;;;19.30;99.90;;;;;;4946406;29;20274;-72
2022/10/24 11:57:54;;;;;;;6.20;2.57;;;19.30;99.90;;;;;;4929670;29;20715;-69
2022/10/24 12:00:27;;;;;;;4.87;2.10;;;19.30;99.90;;;;;;4937638;29;20215;-71
2022/10/24 12:03:11;;;;;;;4.20;2.43;;;19.30;99.90;;;;;;4932841;29;20519;-71
2022/10/24 12:06:05;;;;;;;10.27;3.23;;;19.30;99.90;;;;;;4943068;29;20193;-69
2022/10/24 12:08:54;;;;;;;6.47;3.10;;;19.30;99.90;;;;;;4931048;29;20683;-70
2022/10/24 12:11:43;;;;;;;6.30;2.40;;;19.40;99.90;;;;;;4947376;29;20211;-71
2022/10/24 12:14:44;;;;;;;5.80;2.77;;;19.40;99.90;;;;;;4943141;29;20210;-71
2022/10/24 12:17:37;;;;;;;11.30;3.00;;;19.50;99.90;;;;;;4938987;29;20730;-68
2022/10/24 12:20:10;;;;;;;5.57;2.70;;;19.60;99.90;;;;;;4942256;29;20215;-71
2022/10/24 12:22:41;;;;;;;7.40;2.13;;;19.70;99.90;;;;;;4939886;29;20204;-69
2022/10/24 12:25:25;;;;;;;7.70;2.73;;;19.80;99.90;;;;;;4939082;29;20296;-71
2022/10/24 12:27:54;;;;;;;7.20;2.30;;;19.80;99.90;;;;;;4945938;29;20184;-70
2022/10/24 12:30:23;;;;;;;5.13;2.50;;;19.90;99.90;;;;;;4941228;29;20243;-68
2022/10/24 12:32:53;;;;;;;5.63;2.37;;;19.80;99.90;;;;;;4937734;29;20195;-69
2022/10/24 12:35:30;;;;;;;6.13;2.27;;;19.80;99.90;;;;;;4928893;29;20267;-66
2022/10/24 12:37:56;;;;;;;7.43;2.77;;;19.70;99.90;;;;;;4940689;29;20341;-70
2022/10/24 12:40:44;;;;;;;6.83;2.33;;;19.70;99.90;;;;;;4910105;29;20197;-73
2022/10/24 12:43:27;;;;;;;6.07;2.87;;;19.70;99.90;;;;;;4931196;29;20251;-70
2022/10/24 12:45:53;;;;;;;4.27;2.30;;;19.70;99.90;;;;;;4930097;29;20205;-75
2022/10/24 12:48:29;;;;;;;4.00;3.03;;;19.70;99.90;;;;;;4930724;29;20560;-73
2022/10/24 12:51:04;;;;;;;7.80;2.63;;;19.80;99.90;;;;;;4941894;29;20222;-74
2022/10/24 12:53:58;;;;;;;4.70;2.20;;;19.80;99.90;;;;;;4951811;28;20209;-78
2022/10/24 12:56:23;;;;;;;4.80;2.60;;;19.80;99.90;;;;;;4929787;29;20286;-75
2022/10/24 12:59:14;;;;;;;3.60;1.90;;;20.30;99.90;;;;;;4944354;29;20340;-70
2022/10/24 13:01:41;;;;;;;5.67;2.50;;;20.80;99.90;;;;;;4931840;29;20213;-69
2022/10/24 13:04:43;;;;;;;5.07;2.97;;;21.30;99.90;;;;;;4929241;29;20210;-68
2022/10/24 13:07:14;;;;;;;4.40;2.23;;;21.60;99.90;;;;;;4931519;29;20197;-78
2022/10/24 13:09:49;;;;;;;4.80;2.27;;;21.70;99.90;;;;;;4944972;29;20246;-78